sensor_id;sensor_type;location;lat;lon;timestamp;temperature;humidity
11855;DHT22;5987;53.140;8.904;2022-07-09T00:03:04;14.90;99.90
11855;DHT22;5987;53.140;8.904;2022-07-09T00:06:08;14.90;99.90
11855;DHT22;5987;53.140;8.904;2022-07-09T00:09:12;14.80;99.90
11855;DHT22;5987;53.140;8.904;2022-07-09T00:12:16;14.80;99.90
11855;DHT22;5987;53.140;8.904;2022-07-09T00:15:20;14.80;99.90
11855;DHT22;5987;53.140;8.904;2022-07-09T00:18:25;14.80;99.90
11855;DHT22;5987;53.140;8.904;2022-07-09T00:21:28;14.70;99.90
11855;DHT22;5987;53.140;8.904;2022-07-09T00:24:32;14.90;99.90
11855;DHT22;5987;53.140;8.904;2022-07-09T00:27:36;14.90;99.90
11855;DHT22;5987;53.140;8.904;2022-07-09T00:30:39;15.10;99.90
11855;DHT22;5987;53.140;8.904;2022-07-09T00:33:45;15.10;99.90
11855;DHT22;5987;53.140;8.904;2022-07-09T00:36:49;15.00;99.90
11855;DHT22;5987;53.140;8.904;2022-07-09T00:39:52;15.10;99.90
11855;DHT22;5987;53.140;8.904;2022-07-09T00:42:56;15.00;99.90
11855;DHT22;5987;53.140;8.904;2022-07-09T00:46:00;15.10;99.90
11855;DHT22;5987;53.140;8.904;2022-07-09T00:49:05;15.10;99.90
11855;DHT22;5987;53.140;8.904;2022-07-09T00:52:11;15.10;99.90
11855;DHT22;5987;53.140;8.904;2022-07-09T00:55:16;15.10;99.90
11855;DHT22;5987;53.140;8.904;2022-07-09T00:58:21;15.20;99.90
11855;DHT22;5987;53.140;8.904;2022-07-09T01:01:26;15.20;99.90
11855;DHT22;5987;53.140;8.904;2022-07-09T01:04:32;15.10;99.90
11855;DHT22;5987;53.140;8.904;2022-07-09T01:07:36;15.10;99.90
11855;DHT22;5987;53.140;8.904;2022-07-09T01:10:40;15.10;99.90
11855;DHT22;5987;53.140;8.904;2022-07-09T01:13:44;15.20;99.90
11855;DHT22;5987;53.140;8.904;2022-07-09T01:16:57;15.20;99.90
11855;DHT22;5987;53.140;8.904;2022-07-09T01:20:04;15.20;99.90
11855;DHT22;5987;53.140;8.904;2022-07-09T01:23:10;15.20;99.90
11855;DHT22;5987;53.140;8.904;2022-07-09T01:26:14;15.20;99.90
11855;DHT22;5987;53.140;8.904;2022-07-09T01:29:18;15.20;99.90
11855;DHT22;5987;53.140;8.904;2022-07-09T01:32:22;15.20;99.90
11855;DHT22;5987;53.140;8.904;2022-07-09T01:35:26;15.10;99.90
11855;DHT22;5987;53.140;8.904;2022-07-09T01:38:31;15.10;99.90
11855;DHT22;5987;53.140;8.904;2022-07-09T01:41:36;15.10;99.90
11855;DHT22;5987;53.140;8.904;2022-07-09T01:44:40;15.20;99.90
11855;DHT22;5987;53.140;8.904;2022-07-09T01:47:43;15.30;99.90
11855;DHT22;5987;53.140;8.904;2022-07-09T01:50:47;15.40;99.90
11855;DHT22;5987;53.140;8.904;2022-07-09T01:53:52;15.40;99.90
11855;DHT22;5987;53.140;8.904;2022-07-09T01:56:56;15.30;99.90
11855;DHT22;5987;53.140;8.904;2022-07-09T01:59:59;15.30;99.90
11855;DHT22;5987;53.140;8.904;2022-07-09T02:03:03;15.30;99.90
11855;DHT22;5987;53.140;8.904;2022-07-09T02:06:07;15.30;99.90
11855;DHT22;5987;53.140;8.904;2022-07-09T02:09:12;15.40;99.90
11855;DHT22;5987;53.140;8.904;2022-07-09T02:12:16;15.30;99.90
11855;DHT22;5987;53.140;8.904;2022-07-09T02:15:20;15.30;99.90
11855;DHT22;5987;53.140;8.904;2022-07-09T02:18:25;15.30;99.90
11855;DHT22;5987;53.140;8.904;2022-07-09T02:21:29;15.30;99.90
11855;DHT22;5987;53.140;8.904;2022-07-09T02:24:34;15.30;99.90
11855;DHT22;5987;53.140;8.904;2022-07-09T02:27:38;15.30;99.90
11855;DHT22;5987;53.140;8.904;2022-07-09T02:30:41;15.40;99.90
11855;DHT22;5987;53.140;8.904;2022-07-09T02:33:45;15.40;99.90
11855;DHT22;5987;53.140;8.904;2022-07-09T02:36:49;15.40;99.90
11855;DHT22;5987;53.140;8.904;2022-07-09T02:39:54;15.40;99.90
11855;DHT22;5987;53.140;8.904;2022-07-09T02:42:58;15.40;99.90
11855;DHT22;5987;53.140;8.904;2022-07-09T02:46:01;15.50;99.90
11855;DHT22;5987;53.140;8.904;2022-07-09T02:49:06;15.50;99.90
11855;DHT22;5987;53.140;8.904;2022-07-09T02:52:10;15.60;99.90
11855;DHT22;5987;53.140;8.904;2022-07-09T02:55:15;15.50;99.90
11855;DHT22;5987;53.140;8.904;2022-07-09T02:58:18;15.60;99.90
11855;DHT22;5987;53.140;8.904;2022-07-09T03:01:22;15.60;99.90
11855;DHT22;5987;53.140;8.904;2022-07-09T03:04:26;15.60;99.90
11855;DHT22;5987;53.140;8.904;2022-07-09T03:07:30;15.60;99.90
11855;DHT22;5987;53.140;8.904;2022-07-09T03:10:35;15.60;99.90
11855;DHT22;5987;53.140;8.904;2022-07-09T03:13:39;15.60;99.90
11855;DHT22;5987;53.140;8.904;2022-07-09T03:16:42;15.60;99.90
11855;DHT22;5987;53.140;8.904;2022-07-09T03:19:46;15.70;99.90
11855;DHT22;5987;53.140;8.904;2022-07-09T03:22:50;15.70;99.90
11855;DHT22;5987;53.140;8.904;2022-07-09T03:25:55;15.80;99.90
11855;DHT22;5987;53.140;8.904;2022-07-09T03:28:59;15.80;99.90
11855;DHT22;5987;53.140;8.904;2022-07-09T03:32:04;15.80;99.90
11855;DHT22;5987;53.140;8.904;2022-07-09T03:35:08;15.80;99.90
11855;DHT22;5987;53.140;8.904;2022-07-09T03:38:12;15.80;99.90
11855;DHT22;5987;53.140;8.904;2022-07-09T03:41:17;15.90;99.90
11855;DHT22;5987;53.140;8.904;2022-07-09T03:44:21;15.90;99.90
11855;DHT22;5987;53.140;8.904;2022-07-09T03:47:24;15.90;99.90
11855;DHT22;5987;53.140;8.904;2022-07-09T03:50:28;15.90;99.90
11855;DHT22;5987;53.140;8.904;2022-07-09T03:53:32;15.90;99.90
11855;DHT22;5987;53.140;8.904;2022-07-09T03:56:39;15.90;99.90
11855;DHT22;5987;53.140;8.904;2022-07-09T03:59:42;15.90;99.90
11855;DHT22;5987;53.140;8.904;2022-07-09T04:02:46;16.00;99.90
11855;DHT22;5987;53.140;8.904;2022-07-09T04:05:50;15.90;99.90
11855;DHT22;5987;53.140;8.904;2022-07-09T04:08:53;16.00;99.90
11855;DHT22;5987;53.140;8.904;2022-07-09T04:11:58;16.00;99.90
11855;DHT22;5987;53.140;8.904;2022-07-09T04:15:02;16.10;99.90
11855;DHT22;5987;53.140;8.904;2022-07-09T04:18:07;16.10;99.90
11855;DHT22;5987;53.140;8.904;2022-07-09T04:21:11;16.10;99.90
11855;DHT22;5987;53.140;8.904;2022-07-09T04:24:14;16.20;99.90
11855;DHT22;5987;53.140;8.904;2022-07-09T04:27:20;16.20;99.90
11855;DHT22;5987;53.140;8.904;2022-07-09T04:30:23;16.20;99.90
11855;DHT22;5987;53.140;8.904;2022-07-09T04:33:27;16.30;99.90
11855;DHT22;5987;53.140;8.904;2022-07-09T04:36:31;16.30;99.90
11855;DHT22;5987;53.140;8.904;2022-07-09T04:39:35;16.30;99.90
11855;DHT22;5987;53.140;8.904;2022-07-09T04:42:40;16.40;99.90
11855;DHT22;5987;53.140;8.904;2022-07-09T04:45:44;16.40;99.90
11855;DHT22;5987;53.140;8.904;2022-07-09T04:48:48;16.40;99.90
11855;DHT22;5987;53.140;8.904;2022-07-09T04:51:51;16.50;99.90
11855;DHT22;5987;53.140;8.904;2022-07-09T04:54:55;16.50;99.90
11855;DHT22;5987;53.140;8.904;2022-07-09T04:58:00;16.50;99.90
11855;DHT22;5987;53.140;8.904;2022-07-09T05:01:04;16.60;99.90
11855;DHT22;5987;53.140;8.904;2022-07-09T05:04:08;16.60;99.90
11855;DHT22;5987;53.140;8.904;2022-07-09T05:07:12;16.70;99.90
11855;DHT22;5987;53.140;8.904;2022-07-09T05:10:16;16.80;99.90
11855;DHT22;5987;53.140;8.904;2022-07-09T05:13:21;16.80;99.90
11855;DHT22;5987;53.140;8.904;2022-07-09T05:16:25;16.80;99.90
11855;DHT22;5987;53.140;8.904;2022-07-09T05:19:29;16.90;99.90
11855;DHT22;5987;53.140;8.904;2022-07-09T05:22:35;17.00;99.90
11855;DHT22;5987;53.140;8.904;2022-07-09T05:25:39;17.00;99.90
11855;DHT22;5987;53.140;8.904;2022-07-09T05:28:44;17.00;99.90
11855;DHT22;5987;53.140;8.904;2022-07-09T05:31:48;17.00;99.90
11855;DHT22;5987;53.140;8.904;2022-07-09T05:34:52;17.00;99.90
11855;DHT22;5987;53.140;8.904;2022-07-09T05:37:55;17.00;99.90
11855;DHT22;5987;53.140;8.904;2022-07-09T05:40:59;17.10;99.90
11855;DHT22;5987;53.140;8.904;2022-07-09T05:44:04;17.20;99.90
11855;DHT22;5987;53.140;8.904;2022-07-09T05:47:08;17.30;99.90
11855;DHT22;5987;53.140;8.904;2022-07-09T05:50:12;17.30;99.90
11855;DHT22;5987;53.140;8.904;2022-07-09T05:53:16;17.40;99.90
11855;DHT22;5987;53.140;8.904;2022-07-09T05:56:20;17.40;99.90
11855;DHT22;5987;53.140;8.904;2022-07-09T05:59:25;17.40;99.90
11855;DHT22;5987;53.140;8.904;2022-07-09T06:02:29;17.40;99.90
11855;DHT22;5987;53.140;8.904;2022-07-09T06:05:33;17.40;99.90
11855;DHT22;5987;53.140;8.904;2022-07-09T06:08:37;17.40;99.90
11855;DHT22;5987;53.140;8.904;2022-07-09T06:11:40;17.30;99.90
11855;DHT22;5987;53.140;8.904;2022-07-09T06:14:45;17.20;99.90
11855;DHT22;5987;53.140;8.904;2022-07-09T06:17:49;17.20;99.90
11855;DHT22;5987;53.140;8.904;2022-07-09T06:20:53;17.20;99.90
11855;DHT22;5987;53.140;8.904;2022-07-09T06:23:57;17.20;99.90
11855;DHT22;5987;53.140;8.904;2022-07-09T06:27:00;17.30;99.90
11855;DHT22;5987;53.140;8.904;2022-07-09T06:30:06;17.40;99.90
11855;DHT22;5987;53.140;8.904;2022-07-09T06:33:11;17.50;99.90
11855;DHT22;5987;53.140;8.904;2022-07-09T06:36:14;17.60;99.90
11855;DHT22;5987;53.140;8.904;2022-07-09T06:39:18;17.70;99.90
11855;DHT22;5987;53.140;8.904;2022-07-09T06:42:39;17.90;99.90
11855;DHT22;5987;53.140;8.904;2022-07-09T06:45:44;18.00;99.90
11855;DHT22;5987;53.140;8.904;2022-07-09T06:48:48;18.20;99.90
11855;DHT22;5987;53.140;8.904;2022-07-09T06:51:51;18.10;99.90
11855;DHT22;5987;53.140;8.904;2022-07-09T06:54:55;18.10;99.90
11855;DHT22;5987;53.140;8.904;2022-07-09T06:57:59;18.00;99.90
11855;DHT22;5987;53.140;8.904;2022-07-09T07:01:04;18.20;99.90
11855;DHT22;5987;53.140;8.904;2022-07-09T07:04:08;18.20;99.90
11855;DHT22;5987;53.140;8.904;2022-07-09T07:07:14;18.30;99.90
11855;DHT22;5987;53.140;8.904;2022-07-09T07:10:18;18.30;99.90
11855;DHT22;5987;53.140;8.904;2022-07-09T07:13:25;18.30;99.90
11855;DHT22;5987;53.140;8.904;2022-07-09T07:16:30;18.40;99.90
11855;DHT22;5987;53.140;8.904;2022-07-09T07:19:34;18.40;99.90
11855;DHT22;5987;53.140;8.904;2022-07-09T07:22:38;18.50;99.90
11855;DHT22;5987;53.140;8.904;2022-07-09T07:25:41;18.50;99.90
11855;DHT22;5987;53.140;8.904;2022-07-09T07:28:46;18.70;99.90
11855;DHT22;5987;53.140;8.904;2022-07-09T07:31:52;18.70;99.90
11855;DHT22;5987;53.140;8.904;2022-07-09T07:34:56;18.80;99.90
11855;DHT22;5987;53.140;8.904;2022-07-09T07:38:00;19.00;99.90
11855;DHT22;5987;53.140;8.904;2022-07-09T07:41:04;19.20;99.90
11855;DHT22;5987;53.140;8.904;2022-07-09T07:44:08;19.20;99.90
11855;DHT22;5987;53.140;8.904;2022-07-09T07:47:14;19.20;99.90
11855;DHT22;5987;53.140;8.904;2022-07-09T07:50:17;19.30;99.90
11855;DHT22;5987;53.140;8.904;2022-07-09T07:53:21;19.30;99.90
11855;DHT22;5987;53.140;8.904;2022-07-09T07:56:25;19.20;99.90
11855;DHT22;5987;53.140;8.904;2022-07-09T07:59:29;19.30;99.90
11855;DHT22;5987;53.140;8.904;2022-07-09T08:02:34;19.40;99.90
11855;DHT22;5987;53.140;8.904;2022-07-09T08:05:38;19.60;99.90
11855;DHT22;5987;53.140;8.904;2022-07-09T08:08:42;19.80;99.90
11855;DHT22;5987;53.140;8.904;2022-07-09T08:11:46;19.90;99.90
11855;DHT22;5987;53.140;8.904;2022-07-09T08:14:49;19.90;99.90
11855;DHT22;5987;53.140;8.904;2022-07-09T08:17:55;20.00;99.90
11855;DHT22;5987;53.140;8.904;2022-07-09T08:20:59;20.00;99.90
11855;DHT22;5987;53.140;8.904;2022-07-09T08:24:03;19.90;99.90
11855;DHT22;5987;53.140;8.904;2022-07-09T08:27:08;20.10;99.90
11855;DHT22;5987;53.140;8.904;2022-07-09T08:30:12;19.90;99.90
11855;DHT22;5987;53.140;8.904;2022-07-09T08:33:17;19.90;99.90
11855;DHT22;5987;53.140;8.904;2022-07-09T08:36:21;19.90;99.90
11855;DHT22;5987;53.140;8.904;2022-07-09T08:39:24;19.90;99.90
11855;DHT22;5987;53.140;8.904;2022-07-09T08:42:28;20.10;99.90
11855;DHT22;5987;53.140;8.904;2022-07-09T08:45:34;20.30;99.90
11855;DHT22;5987;53.140;8.904;2022-07-09T08:48:42;20.60;99.90
11855;DHT22;5987;53.140;8.904;2022-07-09T08:51:48;20.80;99.90
11855;DHT22;5987;53.140;8.904;2022-07-09T08:54:53;21.40;99.90
11855;DHT22;5987;53.140;8.904;2022-07-09T08:58:00;22.10;99.90
11855;DHT22;5987;53.140;8.904;2022-07-09T09:01:04;21.80;99.90
11855;DHT22;5987;53.140;8.904;2022-07-09T09:04:10;21.50;99.90
11855;DHT22;5987;53.140;8.904;2022-07-09T09:07:15;21.50;99.90
11855;DHT22;5987;53.140;8.904;2022-07-09T09:10:23;21.50;99.90
11855;DHT22;5987;53.140;8.904;2022-07-09T09:13:27;21.60;99.90
11855;DHT22;5987;53.140;8.904;2022-07-09T09:16:31;21.60;99.90
11855;DHT22;5987;53.140;8.904;2022-07-09T09:19:46;21.70;99.90
11855;DHT22;5987;53.140;8.904;2022-07-09T09:22:51;22.30;99.90
11855;DHT22;5987;53.140;8.904;2022-07-09T09:26:08;22.30;99.90
11855;DHT22;5987;53.140;8.904;2022-07-09T09:29:15;22.20;99.90
11855;DHT22;5987;53.140;8.904;2022-07-09T09:32:20;22.60;99.90
11855;DHT22;5987;53.140;8.904;2022-07-09T09:35:26;23.30;99.90
11855;DHT22;5987;53.140;8.904;2022-07-09T09:38:31;23.20;99.90
11855;DHT22;5987;53.140;8.904;2022-07-09T09:41:35;23.30;99.90
11855;DHT22;5987;53.140;8.904;2022-07-09T09:44:39;24.10;99.90
11855;DHT22;5987;53.140;8.904;2022-07-09T09:47:47;24.40;99.90
11855;DHT22;5987;53.140;8.904;2022-07-09T09:50:55;24.30;99.90
11855;DHT22;5987;53.140;8.904;2022-07-09T09:54:03;23.90;99.90
11855;DHT22;5987;53.140;8.904;2022-07-09T09:57:08;23.30;99.90
11855;DHT22;5987;53.140;8.904;2022-07-09T10:00:16;23.20;99.90
11855;DHT22;5987;53.140;8.904;2022-07-09T10:03:20;23.40;99.90
11855;DHT22;5987;53.140;8.904;2022-07-09T10:06:26;23.40;99.90
11855;DHT22;5987;53.140;8.904;2022-07-09T10:09:31;23.40;99.90
11855;DHT22;5987;53.140;8.904;2022-07-09T10:12:36;23.00;99.90
11855;DHT22;5987;53.140;8.904;2022-07-09T10:15:48;22.70;99.90
11855;DHT22;5987;53.140;8.904;2022-07-09T10:18:53;22.50;99.90
11855;DHT22;5987;53.140;8.904;2022-07-09T10:22:00;22.20;99.90
11855;DHT22;5987;53.140;8.904;2022-07-09T10:25:05;21.70;99.90
11855;DHT22;5987;53.140;8.904;2022-07-09T10:28:14;21.30;99.90
11855;DHT22;5987;53.140;8.904;2022-07-09T10:31:20;21.00;99.90
11855;DHT22;5987;53.140;8.904;2022-07-09T10:34:43;20.60;99.90
11855;DHT22;5987;53.140;8.904;2022-07-09T10:37:55;20.60;99.90
11855;DHT22;5987;53.140;8.904;2022-07-09T10:40:59;20.80;99.90
11855;DHT22;5987;53.140;8.904;2022-07-09T10:44:04;20.70;99.90
11855;DHT22;5987;53.140;8.904;2022-07-09T10:47:08;20.40;99.90
11855;DHT22;5987;53.140;8.904;2022-07-09T10:50:11;20.40;99.90
11855;DHT22;5987;53.140;8.904;2022-07-09T10:53:17;20.70;99.90
11855;DHT22;5987;53.140;8.904;2022-07-09T10:56:21;21.10;99.90
11855;DHT22;5987;53.140;8.904;2022-07-09T10:59:26;21.50;99.90
11855;DHT22;5987;53.140;8.904;2022-07-09T11:02:30;21.80;99.90
11855;DHT22;5987;53.140;8.904;2022-07-09T11:05:43;22.10;99.90
11855;DHT22;5987;53.140;8.904;2022-07-09T11:08:49;22.00;99.90
11855;DHT22;5987;53.140;8.904;2022-07-09T11:11:54;21.70;99.90
11855;DHT22;5987;53.140;8.904;2022-07-09T11:14:58;21.80;99.90
11855;DHT22;5987;53.140;8.904;2022-07-09T11:18:03;22.00;99.90
11855;DHT22;5987;53.140;8.904;2022-07-09T11:21:08;22.20;99.90
11855;DHT22;5987;53.140;8.904;2022-07-09T11:24:15;22.30;99.90
11855;DHT22;5987;53.140;8.904;2022-07-09T11:27:19;22.00;99.90
11855;DHT22;5987;53.140;8.904;2022-07-09T11:30:23;21.60;99.90
11855;DHT22;5987;53.140;8.904;2022-07-09T11:33:28;21.60;99.90
11855;DHT22;5987;53.140;8.904;2022-07-09T11:36:55;21.70;99.90
11855;DHT22;5987;53.140;8.904;2022-07-09T11:40:01;22.00;99.90
11855;DHT22;5987;53.140;8.904;2022-07-09T11:43:12;22.20;99.90
11855;DHT22;5987;53.140;8.904;2022-07-09T11:46:17;22.00;99.90
11855;DHT22;5987;53.140;8.904;2022-07-09T11:49:22;21.40;99.90
11855;DHT22;5987;53.140;8.904;2022-07-09T11:52:25;20.90;99.90
11855;DHT22;5987;53.140;8.904;2022-07-09T11:55:31;21.00;99.90
11855;DHT22;5987;53.140;8.904;2022-07-09T11:58:37;21.30;99.90
11855;DHT22;5987;53.140;8.904;2022-07-09T12:01:51;21.50;99.90
11855;DHT22;5987;53.140;8.904;2022-07-09T12:04:57;21.30;99.90
11855;DHT22;5987;53.140;8.904;2022-07-09T12:08:03;21.00;99.90
11855;DHT22;5987;53.140;8.904;2022-07-09T12:11:09;20.70;99.90
11855;DHT22;5987;53.140;8.904;2022-07-09T12:14:13;20.40;99.90
11855;DHT22;5987;53.140;8.904;2022-07-09T12:17:20;20.30;99.90
11855;DHT22;5987;53.140;8.904;2022-07-09T12:20:27;20.20;99.90
11855;DHT22;5987;53.140;8.904;2022-07-09T12:23:32;20.20;99.90
11855;DHT22;5987;53.140;8.904;2022-07-09T12:26:37;20.00;99.90
11855;DHT22;5987;53.140;8.904;2022-07-09T12:30:01;20.00;99.90
11855;DHT22;5987;53.140;8.904;2022-07-09T12:33:05;20.20;99.90
11855;DHT22;5987;53.140;8.904;2022-07-09T12:36:08;20.20;99.90
11855;DHT22;5987;53.140;8.904;2022-07-09T12:39:12;20.30;99.90
11855;DHT22;5987;53.140;8.904;2022-07-09T12:42:17;20.30;99.90
11855;DHT22;5987;53.140;8.904;2022-07-09T12:45:32;20.50;99.90
11855;DHT22;5987;53.140;8.904;2022-07-09T12:48:36;20.30;99.90
11855;DHT22;5987;53.140;8.904;2022-07-09T12:51:40;20.10;99.90
11855;DHT22;5987;53.140;8.904;2022-07-09T12:54:43;19.90;99.90
11855;DHT22;5987;53.140;8.904;2022-07-09T12:57:48;19.90;99.90
11855;DHT22;5987;53.140;8.904;2022-07-09T13:00:52;20.00;99.90
11855;DHT22;5987;53.140;8.904;2022-07-09T13:03:56;20.10;99.90
11855;DHT22;5987;53.140;8.904;2022-07-09T13:07:13;20.20;99.90
11855;DHT22;5987;53.140;8.904;2022-07-09T13:10:17;19.90;99.90
11855;DHT22;5987;53.140;8.904;2022-07-09T13:13:22;20.00;99.90
11855;DHT22;5987;53.140;8.904;2022-07-09T13:16:26;19.90;99.90
11855;DHT22;5987;53.140;8.904;2022-07-09T13:19:30;19.90;99.90
11855;DHT22;5987;53.140;8.904;2022-07-09T13:22:34;20.00;99.90
11855;DHT22;5987;53.140;8.904;2022-07-09T13:25:37;19.90;99.90
11855;DHT22;5987;53.140;8.904;2022-07-09T13:28:42;20.00;99.90
11855;DHT22;5987;53.140;8.904;2022-07-09T13:31:46;19.90;99.90
11855;DHT22;5987;53.140;8.904;2022-07-09T13:34:50;20.00;99.90
11855;DHT22;5987;53.140;8.904;2022-07-09T13:37:54;20.20;99.90
11855;DHT22;5987;53.140;8.904;2022-07-09T13:40:58;20.30;99.90
11855;DHT22;5987;53.140;8.904;2022-07-09T13:44:03;20.20;99.90
11855;DHT22;5987;53.140;8.904;2022-07-09T13:47:10;20.10;99.90
11855;DHT22;5987;53.140;8.904;2022-07-09T13:50:14;19.90;99.90
11855;DHT22;5987;53.140;8.904;2022-07-09T13:53:21;19.80;99.90
11855;DHT22;5987;53.140;8.904;2022-07-09T13:56:24;19.80;99.90
11855;DHT22;5987;53.140;8.904;2022-07-09T13:59:30;19.90;99.90
11855;DHT22;5987;53.140;8.904;2022-07-09T14:02:33;19.90;99.90
11855;DHT22;5987;53.140;8.904;2022-07-09T14:05:38;19.70;99.90
11855;DHT22;5987;53.140;8.904;2022-07-09T14:08:42;19.70;99.90
11855;DHT22;5987;53.140;8.904;2022-07-09T14:11:46;19.50;99.90
11855;DHT22;5987;53.140;8.904;2022-07-09T14:14:51;19.50;99.90
11855;DHT22;5987;53.140;8.904;2022-07-09T14:17:55;19.40;99.90
11855;DHT22;5987;53.140;8.904;2022-07-09T14:20:59;19.90;99.90
11855;DHT22;5987;53.140;8.904;2022-07-09T14:24:03;20.50;99.90
11855;DHT22;5987;53.140;8.904;2022-07-09T14:27:07;20.30;99.90
11855;DHT22;5987;53.140;8.904;2022-07-09T14:30:19;20.00;99.90
11855;DHT22;5987;53.140;8.904;2022-07-09T14:33:23;20.00;99.80
11855;DHT22;5987;53.140;8.904;2022-07-09T14:36:27;20.20;99.50
11855;DHT22;5987;53.140;8.904;2022-07-09T14:39:31;19.80;97.00
11855;DHT22;5987;53.140;8.904;2022-07-09T14:42:34;19.60;98.50
11855;DHT22;5987;53.140;8.904;2022-07-09T14:45:40;19.40;98.30
11855;DHT22;5987;53.140;8.904;2022-07-09T14:48:43;19.40;98.40
11855;DHT22;5987;53.140;8.904;2022-07-09T14:51:47;19.30;99.10
11855;DHT22;5987;53.140;8.904;2022-07-09T14:54:51;19.20;98.90
11855;DHT22;5987;53.140;8.904;2022-07-09T14:57:54;19.10;98.00
11855;DHT22;5987;53.140;8.904;2022-07-09T15:01:00;19.10;97.20
11855;DHT22;5987;53.140;8.904;2022-07-09T15:04:04;19.10;97.40
11855;DHT22;5987;53.140;8.904;2022-07-09T15:07:07;19.10;96.20
11855;DHT22;5987;53.140;8.904;2022-07-09T15:10:11;19.00;97.40
11855;DHT22;5987;53.140;8.904;2022-07-09T15:13:15;19.00;98.00
11855;DHT22;5987;53.140;8.904;2022-07-09T15:16:20;19.20;97.60
11855;DHT22;5987;53.140;8.904;2022-07-09T15:19:24;19.60;97.10
11855;DHT22;5987;53.140;8.904;2022-07-09T15:22:27;19.50;96.70
11855;DHT22;5987;53.140;8.904;2022-07-09T15:25:31;19.30;96.10
11855;DHT22;5987;53.140;8.904;2022-07-09T15:28:35;19.30;97.50
11855;DHT22;5987;53.140;8.904;2022-07-09T15:31:40;19.10;96.90
11855;DHT22;5987;53.140;8.904;2022-07-09T15:34:44;19.10;99.00
11855;DHT22;5987;53.140;8.904;2022-07-09T15:37:48;19.20;98.20
11855;DHT22;5987;53.140;8.904;2022-07-09T15:40:52;19.20;97.70
11855;DHT22;5987;53.140;8.904;2022-07-09T15:43:55;19.00;98.50
11855;DHT22;5987;53.140;8.904;2022-07-09T15:47:01;19.00;99.10
11855;DHT22;5987;53.140;8.904;2022-07-09T15:50:05;18.90;99.10
11855;DHT22;5987;53.140;8.904;2022-07-09T15:53:10;19.00;98.20
11855;DHT22;5987;53.140;8.904;2022-07-09T15:56:15;18.90;97.90
11855;DHT22;5987;53.140;8.904;2022-07-09T15:59:19;18.90;98.60
11855;DHT22;5987;53.140;8.904;2022-07-09T16:02:25;18.90;99.10
11855;DHT22;5987;53.140;8.904;2022-07-09T16:05:28;18.80;98.40
11855;DHT22;5987;53.140;8.904;2022-07-09T16:08:35;18.80;98.40
11855;DHT22;5987;53.140;8.904;2022-07-09T16:11:39;18.60;98.70
11855;DHT22;5987;53.140;8.904;2022-07-09T16:15:06;18.50;99.00
11855;DHT22;5987;53.140;8.904;2022-07-09T16:18:11;18.40;99.50
11855;DHT22;5987;53.140;8.904;2022-07-09T16:21:15;18.10;98.90
11855;DHT22;5987;53.140;8.904;2022-07-09T16:24:19;18.10;99.60
11855;DHT22;5987;53.140;8.904;2022-07-09T16:27:23;17.90;99.70
11855;DHT22;5987;53.140;8.904;2022-07-09T16:30:26;18.00;99.90
11855;DHT22;5987;53.140;8.904;2022-07-09T16:33:32;17.80;99.90
11855;DHT22;5987;53.140;8.904;2022-07-09T16:36:35;17.80;99.90
11855;DHT22;5987;53.140;8.904;2022-07-09T16:39:39;17.90;99.90
11855;DHT22;5987;53.140;8.904;2022-07-09T16:42:44;17.80;99.90
11855;DHT22;5987;53.140;8.904;2022-07-09T16:45:47;18.00;99.90
11855;DHT22;5987;53.140;8.904;2022-07-09T16:48:52;18.10;99.90
11855;DHT22;5987;53.140;8.904;2022-07-09T16:51:56;18.00;99.90
11855;DHT22;5987;53.140;8.904;2022-07-09T16:55:00;17.90;99.90
11855;DHT22;5987;53.140;8.904;2022-07-09T16:58:04;17.90;99.90
11855;DHT22;5987;53.140;8.904;2022-07-09T17:01:08;17.90;99.90
11855;DHT22;5987;53.140;8.904;2022-07-09T17:04:13;18.00;99.90
11855;DHT22;5987;53.140;8.904;2022-07-09T17:07:19;18.10;99.90
11855;DHT22;5987;53.140;8.904;2022-07-09T17:10:22;18.10;99.90
11855;DHT22;5987;53.140;8.904;2022-07-09T17:13:26;18.00;99.90
11855;DHT22;5987;53.140;8.904;2022-07-09T17:16:30;18.00;99.90
11855;DHT22;5987;53.140;8.904;2022-07-09T17:19:35;17.90;99.90
11855;DHT22;5987;53.140;8.904;2022-07-09T17:22:39;17.80;99.90
11855;DHT22;5987;53.140;8.904;2022-07-09T17:25:43;17.90;99.90
11855;DHT22;5987;53.140;8.904;2022-07-09T17:28:46;17.90;99.90
11855;DHT22;5987;53.140;8.904;2022-07-09T17:31:50;17.60;99.90
11855;DHT22;5987;53.140;8.904;2022-07-09T17:34:55;17.50;99.90
11855;DHT22;5987;53.140;8.904;2022-07-09T17:37:59;17.50;99.90
11855;DHT22;5987;53.140;8.904;2022-07-09T17:41:03;17.50;99.90
11855;DHT22;5987;53.140;8.904;2022-07-09T17:44:07;17.30;99.90
11855;DHT22;5987;53.140;8.904;2022-07-09T17:47:11;17.10;99.90
11855;DHT22;5987;53.140;8.904;2022-07-09T17:50:22;17.00;99.90
11855;DHT22;5987;53.140;8.904;2022-07-09T17:53:26;16.90;99.90
11855;DHT22;5987;53.140;8.904;2022-07-09T17:56:30;16.80;99.90
11855;DHT22;5987;53.140;8.904;2022-07-09T17:59:34;16.60;99.90
11855;DHT22;5987;53.140;8.904;2022-07-09T18:02:37;16.40;99.90
11855;DHT22;5987;53.140;8.904;2022-07-09T18:05:43;16.40;99.90
11855;DHT22;5987;53.140;8.904;2022-07-09T18:08:46;16.30;99.90
11855;DHT22;5987;53.140;8.904;2022-07-09T18:11:50;16.40;99.90
11855;DHT22;5987;53.140;8.904;2022-07-09T18:14:54;16.60;99.90
11855;DHT22;5987;53.140;8.904;2022-07-09T18:17:57;16.60;99.90
11855;DHT22;5987;53.140;8.904;2022-07-09T18:21:09;16.60;99.90
11855;DHT22;5987;53.140;8.904;2022-07-09T18:24:13;16.60;99.90
11855;DHT22;5987;53.140;8.904;2022-07-09T18:27:16;16.50;99.90
11855;DHT22;5987;53.140;8.904;2022-07-09T18:30:20;16.60;99.90
11855;DHT22;5987;53.140;8.904;2022-07-09T18:33:24;16.50;99.90
11855;DHT22;5987;53.140;8.904;2022-07-09T18:36:29;16.50;99.90
11855;DHT22;5987;53.140;8.904;2022-07-09T18:39:33;16.60;99.90
11855;DHT22;5987;53.140;8.904;2022-07-09T18:42:37;16.50;99.90
11855;DHT22;5987;53.140;8.904;2022-07-09T18:45:41;16.40;99.90
11855;DHT22;5987;53.140;8.904;2022-07-09T18:48:44;16.30;99.90
11855;DHT22;5987;53.140;8.904;2022-07-09T18:51:50;16.30;99.90
11855;DHT22;5987;53.140;8.904;2022-07-09T18:54:53;16.30;99.90
11855;DHT22;5987;53.140;8.904;2022-07-09T18:57:57;16.30;99.90
11855;DHT22;5987;53.140;8.904;2022-07-09T19:01:03;16.30;99.90
11855;DHT22;5987;53.140;8.904;2022-07-09T19:04:07;16.20;99.90
11855;DHT22;5987;53.140;8.904;2022-07-09T19:07:13;16.20;99.90
11855;DHT22;5987;53.140;8.904;2022-07-09T19:10:17;16.20;99.90
11855;DHT22;5987;53.140;8.904;2022-07-09T19:13:20;16.20;99.90
11855;DHT22;5987;53.140;8.904;2022-07-09T19:16:24;16.20;99.90
11855;DHT22;5987;53.140;8.904;2022-07-09T19:19:28;16.30;99.90
11855;DHT22;5987;53.140;8.904;2022-07-09T19:22:33;16.40;99.90
11855;DHT22;5987;53.140;8.904;2022-07-09T19:25:38;16.30;99.90
11855;DHT22;5987;53.140;8.904;2022-07-09T19:28:42;16.20;99.90
11855;DHT22;5987;53.140;8.904;2022-07-09T19:31:46;16.10;99.90
11855;DHT22;5987;53.140;8.904;2022-07-09T19:35:07;16.10;99.90
11855;DHT22;5987;53.140;8.904;2022-07-09T19:38:12;16.00;99.90
11855;DHT22;5987;53.140;8.904;2022-07-09T19:41:16;16.00;99.90
11855;DHT22;5987;53.140;8.904;2022-07-09T19:44:21;15.90;99.90
11855;DHT22;5987;53.140;8.904;2022-07-09T19:47:27;16.00;99.90